createdAt,value
2023-02-14T00:02:03.294Z,120.40
2023-02-14T00:04:31.352Z,121.97
2023-02-14T00:07:00.559Z,118.90
2023-02-14T00:09:28.576Z,120.18
2023-02-14T00:11:58.963Z,117.97
2023-02-14T00:14:46.010Z,120.07
2023-02-14T00:17:17.762Z,118.85
2023-02-14T00:19:45.752Z,119.40
2023-02-14T00:22:14.915Z,120.18
2023-02-14T00:24:43.303Z,135.07
2023-02-14T00:27:11.348Z,127.28
2023-02-14T00:29:40.525Z,133.55
2023-02-14T00:32:10.960Z,136.15
2023-02-14T00:34:42.061Z,132.07
2023-02-14T00:37:12.939Z,136.27
2023-02-14T00:39:40.964Z,133.90
2023-02-14T00:42:08.975Z,136.90
2023-02-14T00:44:39.147Z,135.65
2023-02-14T00:47:09.831Z,135.13
2023-02-14T00:49:37.804Z,135.75
2023-02-14T00:52:07.705Z,135.23
2023-02-14T00:54:35.806Z,135.40
2023-02-14T00:57:03.845Z,135.07
2023-02-14T00:59:31.837Z,127.97
2023-02-14T01:01:59.781Z,136.88
2023-02-14T01:04:30.276Z,135.88
2023-02-14T01:06:59.729Z,135.13
2023-02-14T01:09:31.448Z,136.80
2023-02-14T01:12:03.362Z,129.55
2023-02-14T01:14:33.777Z,134.07
2023-02-14T01:17:02.032Z,137.13
2023-02-14T01:19:31.382Z,133.32
2023-02-14T01:22:01.607Z,131.68
2023-02-14T01:24:30.976Z,133.90
2023-02-14T01:29:29.701Z,131.18
2023-02-14T01:31:59.247Z,136.85
2023-02-14T01:34:27.422Z,132.20
2023-02-14T01:36:55.446Z,132.27
2023-02-14T01:39:25.817Z,128.35
2023-02-14T01:41:56.710Z,143.48
2023-02-14T01:44:58.397Z,139.45
2023-02-14T01:47:31.290Z,136.73
2023-02-14T01:50:05.688Z,142.60
2023-02-14T01:52:38.502Z,135.88
2023-02-14T01:55:15.005Z,132.15
2023-02-14T01:57:53.292Z,124.78
2023-02-14T02:00:39.860Z,121.82
2023-02-14T02:03:10.413Z,122.43
2023-02-14T02:05:45.735Z,122.35
2023-02-14T02:08:16.783Z,128.48
2023-02-14T02:10:46.451Z,128.07
2023-02-14T02:13:19.983Z,128.18
2023-02-14T02:16:08.822Z,128.27
2023-02-14T02:18:53.125Z,127.85
2023-02-14T02:22:09.013Z,122.63
2023-02-14T02:24:50.810Z,122.15
2023-02-14T02:27:56.030Z,117.32
2023-02-14T02:30:56.592Z,127.80
2023-02-14T02:34:04.935Z,128.98
2023-02-14T02:37:16.179Z,126.03
2023-02-14T02:40:03.871Z,127.53
2023-02-14T02:42:47.220Z,121.57
2023-02-14T02:45:29.679Z,128.00
2023-02-14T02:48:11.458Z,121.20
2023-02-14T02:51:03.806Z,121.72
2023-02-14T02:53:43.761Z,114.60
2023-02-14T02:56:35.345Z,120.57
2023-02-14T02:59:18.200Z,117.65
2023-02-14T03:02:00.506Z,119.18
2023-02-14T03:04:46.925Z,119.78
2023-02-14T03:07:33.048Z,127.68
2023-02-14T03:10:13.121Z,123.88
2023-02-14T03:13:07.951Z,118.00
2023-02-14T03:15:56.718Z,122.18
2023-02-14T03:19:03.539Z,123.15
2023-02-14T03:21:41.591Z,126.18
2023-02-14T03:24:21.612Z,127.57
2023-02-14T03:26:59.037Z,126.72
2023-02-14T03:29:44.730Z,122.75
2023-02-14T03:32:19.446Z,121.60
2023-02-14T03:34:57.214Z,122.72
2023-02-14T03:37:32.537Z,123.43
2023-02-14T03:40:09.896Z,129.27
2023-02-14T03:42:47.442Z,132.98
2023-02-14T03:45:28.870Z,125.68
2023-02-14T03:48:01.441Z,121.70
2023-02-14T03:50:34.073Z,122.03
2023-02-14T03:53:04.248Z,121.03
2023-02-14T03:55:38.744Z,120.82
2023-02-14T03:58:17.483Z,121.45
2023-02-14T04:00:47.641Z,121.13
2023-02-14T04:03:19.488Z,126.50
2023-02-14T04:05:52.583Z,128.63
2023-02-14T04:08:29.739Z,135.13
2023-02-14T04:11:01.668Z,128.45
2023-02-14T04:13:32.988Z,122.55
2023-02-14T04:16:01.230Z,124.38
2023-02-14T04:18:48.235Z,123.78
2023-02-14T04:21:18.030Z,120.57
2023-02-14T04:23:46.030Z,121.50
2023-02-14T04:26:15.245Z,122.82
2023-02-14T04:28:45.756Z,122.00
2023-02-14T04:31:13.974Z,124.03
2023-02-14T04:33:42.247Z,125.50
2023-02-14T04:36:10.747Z,126.63
2023-02-14T04:38:41.199Z,122.55
2023-02-14T04:41:10.644Z,126.82
2023-02-14T04:43:39.826Z,124.57
2023-02-14T04:46:09.439Z,121.63
2023-02-14T04:48:39.836Z,121.60
2023-02-14T04:51:09.708Z,126.13
2023-02-14T04:53:40.377Z,125.38
2023-02-14T04:56:08.935Z,126.80
2023-02-14T04:58:38.194Z,126.97
2023-02-14T05:01:06.369Z,127.97
2023-02-14T05:03:38.108Z,126.10
2023-02-14T05:06:06.631Z,123.10
2023-02-14T05:08:37.529Z,124.78
2023-02-14T05:11:06.239Z,124.38
2023-02-14T05:13:35.465Z,125.13
2023-02-14T05:16:04.668Z,121.78
2023-02-14T05:18:33.873Z,127.70
2023-02-14T05:21:06.019Z,127.05
2023-02-14T05:23:35.630Z,124.85
2023-02-14T05:26:06.961Z,123.75
2023-02-14T05:28:36.556Z,121.33
2023-02-14T05:31:06.215Z,121.75
2023-02-14T05:33:34.369Z,122.85
2023-02-14T05:36:07.683Z,120.60
2023-02-14T05:38:36.913Z,124.53
2023-02-14T05:41:05.230Z,123.45
2023-02-14T05:43:34.424Z,120.90
2023-02-14T05:46:04.836Z,120.10
2023-02-14T05:48:34.535Z,124.68
2023-02-14T05:51:07.615Z,122.85
2023-02-14T05:53:36.146Z,114.65
2023-02-14T05:56:06.409Z,118.93
2023-02-14T05:58:34.779Z,118.93
2023-02-14T06:01:02.892Z,124.50
2023-02-14T06:03:31.030Z,122.10
2023-02-14T06:06:00.239Z,126.00
2023-02-14T06:08:29.523Z,126.72
2023-02-14T06:10:57.661Z,125.00
2023-02-14T06:13:27.534Z,125.63
2023-02-14T06:15:58.115Z,121.72
2023-02-14T06:18:28.043Z,126.07
2023-02-14T06:20:58.055Z,127.20
2023-02-14T06:23:26.265Z,126.70
2023-02-14T06:25:56.950Z,128.07
2023-02-14T06:28:26.465Z,115.45
2023-02-14T06:30:54.651Z,127.88
2023-02-14T06:33:24.004Z,128.25
2023-02-14T06:35:56.183Z,122.68
2023-02-14T06:40:54.924Z,122.45
2023-02-14T06:43:24.323Z,125.65
2023-02-14T06:45:55.103Z,125.07
2023-02-14T06:48:24.729Z,123.05
2023-02-14T06:50:55.503Z,123.20
2023-02-14T06:53:23.516Z,124.18
2023-02-14T06:55:52.711Z,122.75
2023-02-14T06:58:23.640Z,121.05
2023-02-14T07:00:55.689Z,123.45
2023-02-14T07:03:23.937Z,126.28
2023-02-14T07:05:53.703Z,121.55
2023-02-14T07:08:25.287Z,127.47
2023-02-14T07:10:57.487Z,119.15
2023-02-14T07:13:27.353Z,117.10
2023-02-14T07:15:56.792Z,124.50
2023-02-14T07:18:24.798Z,125.38
2023-02-14T07:20:55.391Z,126.72
2023-02-14T07:23:23.590Z,123.30
2023-02-14T07:25:53.162Z,128.95
2023-02-14T07:28:21.932Z,123.38
2023-02-14T07:30:53.766Z,126.65
2023-02-14T07:33:23.018Z,117.68
2023-02-14T07:35:54.147Z,123.63
2023-02-14T07:38:24.583Z,127.73
2023-02-14T07:40:56.459Z,121.57
2023-02-14T07:43:24.456Z,121.63
2023-02-14T07:45:53.977Z,125.45
2023-02-14T07:48:23.651Z,128.73
2023-02-14T07:50:53.089Z,132.20
2023-02-14T07:53:22.753Z,124.90
2023-02-14T07:55:53.212Z,133.88
2023-02-14T07:58:21.339Z,132.25
2023-02-14T08:00:52.371Z,132.45
2023-02-14T08:03:22.985Z,145.40
2023-02-14T08:05:57.189Z,152.50
2023-02-14T08:08:27.307Z,149.70
2023-02-14T08:10:58.189Z,152.63
2023-02-14T08:13:28.549Z,150.10
2023-02-14T08:16:05.946Z,153.98
2023-02-14T08:18:38.646Z,154.18
2023-02-14T08:21:12.326Z,142.10
2023-02-14T08:23:40.502Z,146.98
2023-02-14T08:26:09.198Z,152.80
2023-02-14T08:28:38.628Z,152.13
2023-02-14T08:31:08.389Z,171.90
2023-02-14T08:33:38.217Z,165.40
2023-02-14T08:36:08.305Z,165.45
2023-02-14T08:38:37.786Z,173.55
2023-02-14T08:41:09.544Z,178.25
2023-02-14T08:43:39.637Z,167.88
2023-02-14T08:46:09.635Z,177.02
2023-02-14T08:48:39.608Z,179.38
2023-02-14T08:51:11.941Z,172.70
2023-02-14T08:53:42.286Z,173.82
2023-02-14T08:56:13.490Z,190.85
2023-02-14T08:58:42.824Z,181.30
2023-02-14T09:01:15.486Z,181.85
2023-02-14T09:03:45.244Z,186.57
2023-02-14T09:06:18.261Z,174.25
2023-02-14T09:08:46.989Z,183.63
2023-02-14T09:11:21.948Z,186.63
2023-02-14T09:13:54.406Z,181.77
2023-02-14T09:16:25.579Z,181.27
2023-02-14T09:18:56.717Z,181.85
2023-02-14T09:21:30.447Z,183.02
2023-02-14T09:23:59.930Z,187.38
2023-02-14T09:26:28.749Z,180.13
2023-02-14T09:28:58.301Z,183.57
2023-02-14T09:31:28.889Z,182.25
2023-02-14T09:33:59.642Z,191.07
2023-02-14T09:36:45.851Z,190.63
2023-02-14T09:39:15.521Z,198.48
2023-02-14T09:42:11.653Z,199.52
2023-02-14T09:44:43.803Z,201.63
2023-02-14T09:47:24.364Z,192.77
2023-02-14T09:49:55.755Z,189.65
2023-02-14T09:52:31.366Z,187.55
2023-02-14T09:55:02.782Z,184.85
2023-02-14T09:57:44.041Z,180.77
2023-02-14T10:00:23.942Z,179.45
2023-02-14T10:03:05.748Z,187.93
2023-02-14T10:05:44.645Z,185.20
2023-02-14T10:08:33.116Z,186.07
2023-02-14T10:11:08.056Z,184.40
2023-02-14T10:13:41.731Z,190.57
2023-02-14T10:16:20.366Z,187.95
2023-02-14T10:29:08.114Z,181.63
2023-02-14T10:31:43.079Z,176.70
2023-02-14T12:12:58.196Z,312.52
2023-02-14T12:15:40.186Z,294.08
2023-02-14T12:18:32.626Z,274.65
2023-02-14T12:21:17.348Z,272.58
2023-02-14T12:23:56.978Z,273.92
2023-02-14T12:26:33.197Z,283.73
2023-02-14T12:29:15.385Z,307.60
2023-02-14T12:31:45.983Z,315.42
2023-02-14T12:37:10.370Z,320.30
2023-02-14T12:39:55.049Z,307.63
2023-02-14T12:42:43.030Z,313.52
2023-02-14T12:45:21.052Z,307.58
2023-02-14T12:48:03.817Z,303.92
2023-02-14T12:50:44.479Z,296.90
2023-02-14T12:53:49.182Z,296.63
2023-02-14T12:56:32.129Z,265.42
2023-02-14T12:59:18.594Z,262.83
2023-02-14T13:02:52.004Z,250.38
2023-02-14T13:05:31.354Z,255.13
2023-02-14T13:08:17.611Z,269.48
2023-02-14T13:11:00.208Z,257.70
2023-02-14T15:56:52.651Z,167.75
2023-02-14T16:18:02.381Z,135.57
2023-02-14T16:20:47.082Z,150.13
2023-02-14T16:23:23.569Z,133.70
2023-02-14T16:25:54.192Z,162.77
2023-02-14T16:28:24.819Z,148.88
2023-02-14T16:30:57.205Z,154.38
2023-02-14T16:33:30.001Z,151.65
2023-02-14T16:36:09.231Z,154.07
2023-02-14T16:38:46.572Z,153.02
2023-02-14T16:41:20.161Z,155.48
2023-02-14T16:43:49.673Z,155.55
2023-02-14T16:46:20.773Z,145.80
2023-02-14T16:48:52.687Z,153.27
2023-02-14T16:51:24.573Z,146.93
2023-02-14T16:53:55.966Z,145.10
2023-02-14T16:56:33.221Z,141.85
2023-02-14T16:59:03.645Z,150.15
2023-02-14T17:01:32.142Z,145.93
2023-02-14T17:04:02.686Z,141.38
2023-02-14T17:06:32.781Z,144.65
2023-02-14T17:09:08.075Z,201.63
2023-02-14T17:11:43.846Z,168.38
2023-02-14T17:14:18.372Z,175.25
2023-02-14T17:16:46.719Z,608.45
2023-02-14T17:19:17.727Z,1031.85
2023-02-14T17:21:46.974Z,844.47
2023-02-14T17:24:17.564Z,227.90
2023-02-14T17:26:46.864Z,280.15
2023-02-14T17:29:17.299Z,250.98
2023-02-14T17:31:45.453Z,300.95
2023-02-14T17:34:14.748Z,286.38
2023-02-14T17:36:44.596Z,247.55
2023-02-14T17:39:15.960Z,237.20
2023-02-14T17:41:44.087Z,227.00
2023-02-14T17:44:14.644Z,232.20
2023-02-14T17:46:42.715Z,240.85
2023-02-14T17:49:10.781Z,228.40
2023-02-14T17:51:40.295Z,220.90
2023-02-14T17:54:08.594Z,236.73
2023-02-14T17:56:37.786Z,251.68
2023-02-14T17:59:08.228Z,362.20
2023-02-14T18:01:39.096Z,901.38
2023-02-14T18:04:08.351Z,770.95
2023-02-14T18:06:37.810Z,439.33
2023-02-14T18:09:08.905Z,396.80
2023-02-14T18:11:42.200Z,638.97
2023-02-14T18:16:42.429Z,796.15
2023-02-14T18:19:14.339Z,501.77
2023-02-14T18:21:46.119Z,547.67
2023-02-14T18:24:16.155Z,791.58
2023-02-14T18:26:45.470Z,873.88
2023-02-14T18:29:15.239Z,849.17
2023-02-14T18:31:45.618Z,859.15
2023-02-14T18:34:15.353Z,869.45
2023-02-14T18:36:44.966Z,866.90
2023-02-14T18:39:15.408Z,857.85
2023-02-14T18:41:43.685Z,849.72
2023-02-14T18:44:15.405Z,826.38
2023-02-14T18:46:46.542Z,855.00
2023-02-14T18:49:15.374Z,838.08
2023-02-14T18:51:45.286Z,853.00
2023-02-14T18:54:14.444Z,834.40
2023-02-14T18:56:42.569Z,817.80
2023-02-14T18:59:14.533Z,855.65
2023-02-14T19:01:47.132Z,842.95
2023-02-14T19:04:17.881Z,827.65
2023-02-14T19:06:46.017Z,813.47
2023-02-14T19:09:18.265Z,847.28
2023-02-14T19:14:15.508Z,820.53
2023-02-14T19:16:50.434Z,827.72
2023-02-14T19:19:21.717Z,830.85
2023-02-14T19:21:52.053Z,795.45
2023-02-14T19:24:22.364Z,806.78
2023-02-14T19:26:51.537Z,815.92
2023-02-14T19:29:23.392Z,784.25
2023-02-14T19:31:55.638Z,762.30
2023-02-14T19:34:27.997Z,775.67
2023-02-14T19:37:00.494Z,808.85
2023-02-14T19:39:30.529Z,761.83
2023-02-14T19:42:00.879Z,787.87
2023-02-14T19:44:32.241Z,777.42
2023-02-14T19:47:04.216Z,795.47
2023-02-14T19:49:37.401Z,819.33
2023-02-14T19:52:14.174Z,820.35
2023-02-14T19:54:45.987Z,869.08
2023-02-14T19:57:17.354Z,1140.55
2023-02-14T19:59:46.534Z,820.75
2023-02-14T20:02:19.829Z,630.28
2023-02-14T20:04:49.051Z,490.50
2023-02-14T20:07:18.197Z,840.50
2023-02-14T20:09:47.353Z,876.47
2023-02-14T20:12:16.490Z,863.60
2023-02-14T20:14:51.287Z,857.45
2023-02-14T20:17:22.361Z,831.40
2023-02-14T20:19:51.822Z,825.08
2023-02-14T20:22:23.034Z,814.55
2023-02-14T20:24:51.629Z,820.10
2023-02-14T20:27:21.596Z,859.65
2023-02-14T20:29:52.769Z,856.38
2023-02-14T20:32:22.387Z,904.65
2023-02-14T20:34:52.177Z,1176.30
2023-02-14T20:37:21.368Z,1268.28
2023-02-14T20:39:51.212Z,1251.18
2023-02-14T20:42:20.979Z,934.72
2023-02-14T20:44:51.471Z,760.08
2023-02-14T20:47:20.044Z,533.25
2023-02-14T20:49:52.338Z,723.47
2023-02-14T20:52:20.452Z,472.35
2023-02-14T20:54:48.472Z,475.08
2023-02-14T20:57:17.636Z,476.75
2023-02-14T20:59:48.362Z,478.92
2023-02-14T21:02:18.332Z,665.20
2023-02-14T21:04:47.797Z,458.63
2023-02-14T21:07:19.139Z,482.55
2023-02-14T21:09:49.583Z,500.55
2023-02-14T21:12:18.857Z,490.38
2023-02-14T21:14:48.552Z,552.88
2023-02-14T21:17:16.735Z,518.25
2023-02-14T21:19:45.995Z,528.13
2023-02-14T21:22:15.573Z,525.13
2023-02-14T21:24:46.170Z,477.17
2023-02-14T21:27:14.145Z,471.80
2023-02-14T21:29:42.261Z,494.85
2023-02-14T21:32:10.337Z,490.30
2023-02-14T21:34:39.652Z,483.05
2023-02-14T21:37:07.711Z,445.75
2023-02-14T21:39:37.885Z,443.33
2023-02-14T21:42:11.356Z,503.27
2023-02-14T21:44:58.364Z,445.70
2023-02-14T21:47:27.662Z,473.42
2023-02-14T21:50:13.647Z,488.42
2023-02-14T21:52:43.329Z,485.63
2023-02-14T21:55:13.780Z,495.98
2023-02-14T21:57:44.299Z,500.90
2023-02-14T22:00:14.395Z,488.85
2023-02-14T22:02:44.063Z,477.45
2023-02-14T22:05:13.983Z,487.45
2023-02-14T22:07:42.567Z,547.20
2023-02-14T22:10:13.774Z,398.38
2023-02-14T22:12:42.155Z,427.77
2023-02-14T22:15:14.508Z,414.92
2023-02-14T22:17:44.269Z,419.60
2023-02-14T22:20:14.418Z,430.50
2023-02-14T22:22:43.266Z,427.77
2023-02-14T22:25:12.778Z,435.98
2023-02-14T22:27:42.082Z,429.80
2023-02-14T22:30:13.580Z,432.52
2023-02-14T22:32:43.119Z,432.67
2023-02-14T22:35:12.713Z,434.88
2023-02-14T22:37:41.990Z,420.23
2023-02-14T22:40:13.323Z,408.92
2023-02-14T22:42:41.388Z,411.17
2023-02-14T22:45:10.606Z,435.17
2023-02-14T22:47:39.915Z,423.48
2023-02-14T22:50:11.479Z,437.67
2023-02-14T22:52:41.297Z,430.45
2023-02-14T22:55:12.218Z,438.63
2023-02-14T22:57:41.156Z,464.55
2023-02-14T23:00:12.787Z,450.83
2023-02-14T23:02:43.409Z,452.98
2023-02-14T23:05:13.862Z,421.85
2023-02-14T23:07:43.027Z,417.85
2023-02-14T23:10:13.229Z,407.90
2023-02-14T23:12:59.974Z,386.50
2023-02-14T23:15:46.184Z,365.17
2023-02-14T23:18:34.273Z,353.52
2023-02-14T23:21:24.494Z,308.30
2023-02-14T23:23:53.708Z,277.20
2023-02-14T23:26:22.874Z,263.17
2023-02-14T23:28:52.034Z,262.08
2023-02-14T23:31:21.321Z,253.43
2023-02-14T23:33:53.281Z,256.25
2023-02-14T23:36:22.598Z,241.45
2023-02-14T23:38:52.075Z,260.05
2023-02-14T23:41:40.200Z,258.35
2023-02-14T23:44:09.545Z,265.63
2023-02-14T23:46:38.813Z,287.92
2023-02-14T23:49:09.623Z,321.00
2023-02-14T23:51:38.286Z,360.33
2023-02-14T23:54:06.913Z,390.30
2023-02-14T23:56:36.890Z,424.67
2023-02-14T23:59:06.882Z,452.85
